sensor_id;sensor_type;location;lat;lon;timestamp;P1;durP1;ratioP1;P2;durP2;ratioP2
14903;SDS011;7543;53.148;8.234;2023-04-01T00:01:14;6.77;;;4.77;;
14903;SDS011;7543;53.148;8.234;2023-04-01T00:03:43;9.23;;;4.53;;
14903;SDS011;7543;53.148;8.234;2023-04-01T00:06:12;6.30;;;4.63;;
14903;SDS011;7543;53.148;8.234;2023-04-01T00:08:41;7.13;;;4.67;;
14903;SDS011;7543;53.148;8.234;2023-04-01T00:11:11;8.73;;;5.13;;
14903;SDS011;7543;53.148;8.234;2023-04-01T00:13:39;5.97;;;4.77;;
14903;SDS011;7543;53.148;8.234;2023-04-01T00:16:08;8.23;;;5.00;;
14903;SDS011;7543;53.148;8.234;2023-04-01T00:18:37;8.87;;;5.30;;
14903;SDS011;7543;53.148;8.234;2023-04-01T00:21:05;7.17;;;4.93;;
14903;SDS011;7543;53.148;8.234;2023-04-01T00:23:34;9.50;;;5.30;;
14903;SDS011;7543;53.148;8.234;2023-04-01T00:26:03;6.47;;;4.67;;
14903;SDS011;7543;53.148;8.234;2023-04-01T00:28:33;7.60;;;4.60;;
14903;SDS011;7543;53.148;8.234;2023-04-01T00:31:04;7.27;;;4.40;;
14903;SDS011;7543;53.148;8.234;2023-04-01T00:33:33;8.47;;;5.40;;
14903;SDS011;7543;53.148;8.234;2023-04-01T00:36:06;7.33;;;5.33;;
14903;SDS011;7543;53.148;8.234;2023-04-01T00:38:36;7.27;;;5.20;;
14903;SDS011;7543;53.148;8.234;2023-04-01T00:41:05;7.23;;;4.90;;
14903;SDS011;7543;53.148;8.234;2023-04-01T00:43:36;9.70;;;5.23;;
14903;SDS011;7543;53.148;8.234;2023-04-01T00:46:04;6.37;;;5.07;;
14903;SDS011;7543;53.148;8.234;2023-04-01T00:48:33;7.90;;;5.60;;
14903;SDS011;7543;53.148;8.234;2023-04-01T00:51:03;7.90;;;5.50;;
14903;SDS011;7543;53.148;8.234;2023-04-01T00:53:33;7.37;;;5.30;;
14903;SDS011;7543;53.148;8.234;2023-04-01T00:56:05;7.73;;;5.30;;
14903;SDS011;7543;53.148;8.234;2023-04-01T00:58:38;7.47;;;5.67;;
14903;SDS011;7543;53.148;8.234;2023-04-01T01:01:08;8.50;;;5.70;;
14903;SDS011;7543;53.148;8.234;2023-04-01T01:03:37;8.47;;;5.40;;
14903;SDS011;7543;53.148;8.234;2023-04-01T01:06:10;7.70;;;6.20;;
14903;SDS011;7543;53.148;8.234;2023-04-01T01:08:47;9.00;;;5.73;;
14903;SDS011;7543;53.148;8.234;2023-04-01T01:11:27;9.00;;;6.00;;
14903;SDS011;7543;53.148;8.234;2023-04-01T01:14:01;8.03;;;5.57;;
14903;SDS011;7543;53.148;8.234;2023-04-01T01:16:37;7.47;;;5.43;;
14903;SDS011;7543;53.148;8.234;2023-04-01T01:19:16;8.50;;;5.53;;
14903;SDS011;7543;53.148;8.234;2023-04-01T01:22:02;8.10;;;5.43;;
14903;SDS011;7543;53.148;8.234;2023-04-01T01:24:41;7.13;;;5.63;;
14903;SDS011;7543;53.148;8.234;2023-04-01T01:27:13;7.43;;;4.97;;
14903;SDS011;7543;53.148;8.234;2023-04-01T01:32:55;7.50;;;5.37;;
14903;SDS011;7543;53.148;8.234;2023-04-01T01:35:30;7.07;;;5.13;;
14903;SDS011;7543;53.148;8.234;2023-04-01T01:38:04;6.93;;;4.77;;
14903;SDS011;7543;53.148;8.234;2023-04-01T01:40:34;6.47;;;5.23;;
14903;SDS011;7543;53.148;8.234;2023-04-01T01:43:05;6.23;;;5.00;;
14903;SDS011;7543;53.148;8.234;2023-04-01T01:45:35;7.10;;;4.57;;
14903;SDS011;7543;53.148;8.234;2023-04-01T01:48:06;7.40;;;4.70;;
14903;SDS011;7543;53.148;8.234;2023-04-01T01:50:37;7.43;;;5.30;;
14903;SDS011;7543;53.148;8.234;2023-04-01T01:53:08;6.23;;;4.80;;
14903;SDS011;7543;53.148;8.234;2023-04-01T01:55:39;7.53;;;4.80;;
14903;SDS011;7543;53.148;8.234;2023-04-01T01:58:10;6.53;;;5.20;;
14903;SDS011;7543;53.148;8.234;2023-04-01T02:00:41;7.70;;;5.30;;
14903;SDS011;7543;53.148;8.234;2023-04-01T02:03:11;7.43;;;5.53;;
14903;SDS011;7543;53.148;8.234;2023-04-01T02:05:42;6.60;;;5.60;;
14903;SDS011;7543;53.148;8.234;2023-04-01T02:08:11;7.40;;;5.23;;
14903;SDS011;7543;53.148;8.234;2023-04-01T02:10:42;9.03;;;5.50;;
14903;SDS011;7543;53.148;8.234;2023-04-01T02:13:16;10.57;;;5.73;;
14903;SDS011;7543;53.148;8.234;2023-04-01T02:15:47;7.40;;;5.73;;
14903;SDS011;7543;53.148;8.234;2023-04-01T02:18:18;8.20;;;5.90;;
14903;SDS011;7543;53.148;8.234;2023-04-01T02:20:48;6.63;;;5.47;;
14903;SDS011;7543;53.148;8.234;2023-04-01T02:23:17;8.27;;;5.97;;
14903;SDS011;7543;53.148;8.234;2023-04-01T02:25:45;7.80;;;5.80;;
14903;SDS011;7543;53.148;8.234;2023-04-01T02:28:15;8.07;;;5.60;;
14903;SDS011;7543;53.148;8.234;2023-04-01T02:30:46;6.83;;;5.57;;
14903;SDS011;7543;53.148;8.234;2023-04-01T02:33:16;7.37;;;5.77;;
14903;SDS011;7543;53.148;8.234;2023-04-01T02:35:45;9.77;;;6.00;;
14903;SDS011;7543;53.148;8.234;2023-04-01T02:38:14;7.83;;;6.00;;
14903;SDS011;7543;53.148;8.234;2023-04-01T02:40:45;6.77;;;5.20;;
14903;SDS011;7543;53.148;8.234;2023-04-01T02:43:15;7.83;;;5.67;;
14903;SDS011;7543;53.148;8.234;2023-04-01T02:45:44;9.60;;;5.67;;
14903;SDS011;7543;53.148;8.234;2023-04-01T02:48:12;7.60;;;5.83;;
14903;SDS011;7543;53.148;8.234;2023-04-01T02:50:41;7.67;;;5.70;;
14903;SDS011;7543;53.148;8.234;2023-04-01T02:53:09;8.47;;;6.07;;
14903;SDS011;7543;53.148;8.234;2023-04-01T02:55:39;6.83;;;5.40;;
14903;SDS011;7543;53.148;8.234;2023-04-01T02:58:07;9.47;;;5.93;;
14903;SDS011;7543;53.148;8.234;2023-04-01T03:00:36;6.73;;;5.50;;
14903;SDS011;7543;53.148;8.234;2023-04-01T03:03:04;7.23;;;5.37;;
14903;SDS011;7543;53.148;8.234;2023-04-01T03:05:33;8.23;;;5.83;;
14903;SDS011;7543;53.148;8.234;2023-04-01T03:08:01;7.33;;;5.33;;
14903;SDS011;7543;53.148;8.234;2023-04-01T03:10:30;6.20;;;5.13;;
14903;SDS011;7543;53.148;8.234;2023-04-01T03:12:59;7.70;;;5.70;;
14903;SDS011;7543;53.148;8.234;2023-04-01T03:15:28;7.30;;;5.63;;
14903;SDS011;7543;53.148;8.234;2023-04-01T03:17:56;8.80;;;6.23;;
14903;SDS011;7543;53.148;8.234;2023-04-01T03:20:25;8.53;;;6.10;;
14903;SDS011;7543;53.148;8.234;2023-04-01T03:22:53;7.97;;;5.57;;
14903;SDS011;7543;53.148;8.234;2023-04-01T03:25:22;9.50;;;6.23;;
14903;SDS011;7543;53.148;8.234;2023-04-01T03:27:51;8.17;;;6.20;;
14903;SDS011;7543;53.148;8.234;2023-04-01T03:30:21;8.83;;;5.80;;
14903;SDS011;7543;53.148;8.234;2023-04-01T03:32:51;7.67;;;5.90;;
14903;SDS011;7543;53.148;8.234;2023-04-01T03:35:19;10.80;;;6.30;;
14903;SDS011;7543;53.148;8.234;2023-04-01T03:37:47;8.53;;;6.03;;
14903;SDS011;7543;53.148;8.234;2023-04-01T03:40:16;7.60;;;5.60;;
14903;SDS011;7543;53.148;8.234;2023-04-01T03:42:44;6.67;;;5.20;;
14903;SDS011;7543;53.148;8.234;2023-04-01T03:45:13;7.13;;;5.27;;
14903;SDS011;7543;53.148;8.234;2023-04-01T03:47:43;8.03;;;5.90;;
14903;SDS011;7543;53.148;8.234;2023-04-01T03:50:11;8.93;;;5.87;;
14903;SDS011;7543;53.148;8.234;2023-04-01T03:52:40;7.10;;;5.13;;
14903;SDS011;7543;53.148;8.234;2023-04-01T03:55:08;6.73;;;5.03;;
14903;SDS011;7543;53.148;8.234;2023-04-01T03:57:39;6.30;;;4.93;;
14903;SDS011;7543;53.148;8.234;2023-04-01T04:00:16;8.67;;;5.67;;
14903;SDS011;7543;53.148;8.234;2023-04-01T04:02:53;6.93;;;5.60;;
14903;SDS011;7543;53.148;8.234;2023-04-01T04:05:27;8.53;;;5.70;;
14903;SDS011;7543;53.148;8.234;2023-04-01T04:07:55;7.97;;;5.60;;
14903;SDS011;7543;53.148;8.234;2023-04-01T04:10:24;7.10;;;5.53;;
14903;SDS011;7543;53.148;8.234;2023-04-01T04:12:52;7.37;;;5.57;;
14903;SDS011;7543;53.148;8.234;2023-04-01T04:15:22;6.43;;;5.13;;
14903;SDS011;7543;53.148;8.234;2023-04-01T04:17:52;9.30;;;6.03;;
14903;SDS011;7543;53.148;8.234;2023-04-01T04:20:21;6.47;;;5.17;;
14903;SDS011;7543;53.148;8.234;2023-04-01T04:22:49;7.03;;;5.33;;
14903;SDS011;7543;53.148;8.234;2023-04-01T04:25:17;8.67;;;5.37;;
14903;SDS011;7543;53.148;8.234;2023-04-01T04:27:46;7.43;;;5.10;;
14903;SDS011;7543;53.148;8.234;2023-04-01T04:30:16;7.33;;;5.47;;
14903;SDS011;7543;53.148;8.234;2023-04-01T04:32:45;7.10;;;5.13;;
14903;SDS011;7543;53.148;8.234;2023-04-01T04:35:15;9.33;;;5.50;;
14903;SDS011;7543;53.148;8.234;2023-04-01T04:37:43;7.53;;;5.20;;
14903;SDS011;7543;53.148;8.234;2023-04-01T04:40:11;8.90;;;5.53;;
14903;SDS011;7543;53.148;8.234;2023-04-01T04:42:41;7.60;;;4.67;;
14903;SDS011;7543;53.148;8.234;2023-04-01T04:45:13;6.47;;;4.97;;
14903;SDS011;7543;53.148;8.234;2023-04-01T04:47:50;7.13;;;5.00;;
14903;SDS011;7543;53.148;8.234;2023-04-01T04:50:20;7.03;;;5.37;;
14903;SDS011;7543;53.148;8.234;2023-04-01T04:52:49;6.10;;;4.60;;
14903;SDS011;7543;53.148;8.234;2023-04-01T04:55:18;10.10;;;5.20;;
14903;SDS011;7543;53.148;8.234;2023-04-01T04:57:51;6.53;;;4.77;;
14903;SDS011;7543;53.148;8.234;2023-04-01T05:00:19;8.60;;;4.90;;
14903;SDS011;7543;53.148;8.234;2023-04-01T05:02:58;6.87;;;4.90;;
14903;SDS011;7543;53.148;8.234;2023-04-01T05:05:27;6.13;;;4.70;;
14903;SDS011;7543;53.148;8.234;2023-04-01T05:07:56;6.50;;;4.70;;
14903;SDS011;7543;53.148;8.234;2023-04-01T05:10:25;7.43;;;4.93;;
14903;SDS011;7543;53.148;8.234;2023-04-01T05:12:53;6.37;;;4.90;;
14903;SDS011;7543;53.148;8.234;2023-04-01T05:15:23;6.07;;;4.50;;
14903;SDS011;7543;53.148;8.234;2023-04-01T05:17:52;7.50;;;5.23;;
14903;SDS011;7543;53.148;8.234;2023-04-01T05:20:20;6.23;;;4.77;;
14903;SDS011;7543;53.148;8.234;2023-04-01T05:22:53;9.40;;;4.73;;
14903;SDS011;7543;53.148;8.234;2023-04-01T05:25:23;6.10;;;4.67;;
14903;SDS011;7543;53.148;8.234;2023-04-01T05:27:52;5.70;;;4.43;;
14903;SDS011;7543;53.148;8.234;2023-04-01T05:30:20;6.50;;;4.47;;
14903;SDS011;7543;53.148;8.234;2023-04-01T05:33:04;7.17;;;4.40;;
14903;SDS011;7543;53.148;8.234;2023-04-01T05:35:33;7.07;;;4.50;;
14903;SDS011;7543;53.148;8.234;2023-04-01T05:38:03;5.53;;;4.07;;
14903;SDS011;7543;53.148;8.234;2023-04-01T05:40:32;5.40;;;4.10;;
14903;SDS011;7543;53.148;8.234;2023-04-01T05:43:00;5.77;;;4.07;;
14903;SDS011;7543;53.148;8.234;2023-04-01T05:45:29;4.67;;;3.77;;
14903;SDS011;7543;53.148;8.234;2023-04-01T05:48:15;5.47;;;4.07;;
14903;SDS011;7543;53.148;8.234;2023-04-01T05:50:44;6.20;;;4.00;;
14903;SDS011;7543;53.148;8.234;2023-04-01T05:53:14;5.00;;;3.93;;
14903;SDS011;7543;53.148;8.234;2023-04-01T05:55:44;6.37;;;3.83;;
14903;SDS011;7543;53.148;8.234;2023-04-01T05:58:14;4.20;;;3.33;;
14903;SDS011;7543;53.148;8.234;2023-04-01T06:00:45;5.57;;;3.30;;
14903;SDS011;7543;53.148;8.234;2023-04-01T06:03:16;5.30;;;3.67;;
14903;SDS011;7543;53.148;8.234;2023-04-01T06:05:44;7.70;;;4.03;;
14903;SDS011;7543;53.148;8.234;2023-04-01T06:08:15;4.57;;;3.40;;
14903;SDS011;7543;53.148;8.234;2023-04-01T06:10:50;4.17;;;3.20;;
14903;SDS011;7543;53.148;8.234;2023-04-01T06:13:26;4.27;;;3.37;;
14903;SDS011;7543;53.148;8.234;2023-04-01T06:16:02;4.47;;;3.47;;
14903;SDS011;7543;53.148;8.234;2023-04-01T06:18:38;3.83;;;2.90;;
14903;SDS011;7543;53.148;8.234;2023-04-01T06:21:15;3.83;;;2.87;;
14903;SDS011;7543;53.148;8.234;2023-04-01T06:24:10;4.70;;;2.80;;
14903;SDS011;7543;53.148;8.234;2023-04-01T06:26:48;4.40;;;2.87;;
14903;SDS011;7543;53.148;8.234;2023-04-01T06:32:35;6.00;;;3.13;;
14903;SDS011;7543;53.148;8.234;2023-04-01T06:35:20;3.00;;;2.50;;
14903;SDS011;7543;53.148;8.234;2023-04-01T06:38:11;3.87;;;3.00;;
14903;SDS011;7543;53.148;8.234;2023-04-01T06:43:54;3.93;;;3.17;;
14903;SDS011;7543;53.148;8.234;2023-04-01T06:46:45;5.00;;;3.53;;
14903;SDS011;7543;53.148;8.234;2023-04-01T06:49:40;4.40;;;3.33;;
14903;SDS011;7543;53.148;8.234;2023-04-01T06:52:46;3.67;;;2.80;;
14903;SDS011;7543;53.148;8.234;2023-04-01T06:55:40;3.33;;;2.80;;
14903;SDS011;7543;53.148;8.234;2023-04-01T06:58:29;5.07;;;3.10;;
14903;SDS011;7543;53.148;8.234;2023-04-01T07:01:00;5.17;;;3.13;;
14903;SDS011;7543;53.148;8.234;2023-04-01T07:03:30;3.53;;;2.73;;
14903;SDS011;7543;53.148;8.234;2023-04-01T07:06:03;4.07;;;3.20;;
14903;SDS011;7543;53.148;8.234;2023-04-01T07:08:38;3.50;;;2.90;;
14903;SDS011;7543;53.148;8.234;2023-04-01T07:11:09;4.57;;;3.00;;
14903;SDS011;7543;53.148;8.234;2023-04-01T07:14:20;5.00;;;2.80;;
14903;SDS011;7543;53.148;8.234;2023-04-01T07:16:51;3.80;;;2.50;;
14903;SDS011;7543;53.148;8.234;2023-04-01T07:19:24;4.80;;;2.60;;
14903;SDS011;7543;53.148;8.234;2023-04-01T07:22:03;4.27;;;2.50;;
14903;SDS011;7543;53.148;8.234;2023-04-01T07:24:53;4.33;;;2.27;;
14903;SDS011;7543;53.148;8.234;2023-04-01T07:27:25;2.97;;;2.10;;
14903;SDS011;7543;53.148;8.234;2023-04-01T07:29:56;2.40;;;2.20;;
14903;SDS011;7543;53.148;8.234;2023-04-01T07:32:30;2.40;;;2.10;;
14903;SDS011;7543;53.148;8.234;2023-04-01T07:35:06;2.67;;;2.30;;
14903;SDS011;7543;53.148;8.234;2023-04-01T07:37:39;2.83;;;2.07;;
14903;SDS011;7543;53.148;8.234;2023-04-01T07:40:17;2.83;;;2.53;;
14903;SDS011;7543;53.148;8.234;2023-04-01T07:42:55;2.87;;;2.30;;
14903;SDS011;7543;53.148;8.234;2023-04-01T07:45:34;9.97;;;6.03;;
14903;SDS011;7543;53.148;8.234;2023-04-01T07:48:15;4.80;;;2.40;;
14903;SDS011;7543;53.148;8.234;2023-04-01T07:50:50;2.47;;;1.93;;
14903;SDS011;7543;53.148;8.234;2023-04-01T07:53:25;2.43;;;2.10;;
14903;SDS011;7543;53.148;8.234;2023-04-01T07:56:00;3.80;;;2.20;;
14903;SDS011;7543;53.148;8.234;2023-04-01T07:58:39;2.40;;;1.90;;
14903;SDS011;7543;53.148;8.234;2023-04-01T08:01:40;3.50;;;2.30;;
14903;SDS011;7543;53.148;8.234;2023-04-01T08:04:25;2.73;;;2.03;;
14903;SDS011;7543;53.148;8.234;2023-04-01T08:07:00;2.00;;;1.80;;
14903;SDS011;7543;53.148;8.234;2023-04-01T08:09:40;2.10;;;1.87;;
14903;SDS011;7543;53.148;8.234;2023-04-01T08:12:41;2.43;;;2.10;;
14903;SDS011;7543;53.148;8.234;2023-04-01T08:15:32;2.80;;;1.97;;
14903;SDS011;7543;53.148;8.234;2023-04-01T08:18:17;2.80;;;1.97;;
14903;SDS011;7543;53.148;8.234;2023-04-01T08:20:51;3.43;;;2.07;;
14903;SDS011;7543;53.148;8.234;2023-04-01T08:23:24;2.23;;;1.90;;
14903;SDS011;7543;53.148;8.234;2023-04-01T08:25:56;3.23;;;2.20;;
14903;SDS011;7543;53.148;8.234;2023-04-01T08:28:32;2.27;;;1.93;;
14903;SDS011;7543;53.148;8.234;2023-04-01T08:31:05;2.37;;;1.93;;
14903;SDS011;7543;53.148;8.234;2023-04-01T08:33:37;1.77;;;1.67;;
14903;SDS011;7543;53.148;8.234;2023-04-01T08:36:13;3.43;;;1.77;;
14903;SDS011;7543;53.148;8.234;2023-04-01T08:38:49;2.23;;;1.60;;
14903;SDS011;7543;53.148;8.234;2023-04-01T08:41:26;1.77;;;1.50;;
14903;SDS011;7543;53.148;8.234;2023-04-01T08:44:24;3.30;;;1.40;;
14903;SDS011;7543;53.148;8.234;2023-04-01T08:47:09;2.50;;;2.07;;
14903;SDS011;7543;53.148;8.234;2023-04-01T08:49:55;1.87;;;1.47;;
14903;SDS011;7543;53.148;8.234;2023-04-01T08:53:03;1.33;;;1.23;;
14903;SDS011;7543;53.148;8.234;2023-04-01T08:55:40;1.40;;;1.30;;
14903;SDS011;7543;53.148;8.234;2023-04-01T09:01:26;2.23;;;1.40;;
14903;SDS011;7543;53.148;8.234;2023-04-01T09:04:13;1.97;;;1.40;;
14903;SDS011;7543;53.148;8.234;2023-04-01T09:06:58;1.60;;;1.30;;
14903;SDS011;7543;53.148;8.234;2023-04-01T09:09:51;1.20;;;1.00;;
14903;SDS011;7543;53.148;8.234;2023-04-01T09:12:43;1.30;;;1.20;;
14903;SDS011;7543;53.148;8.234;2023-04-01T09:15:36;1.80;;;1.30;;
14903;SDS011;7543;53.148;8.234;2023-04-01T09:18:16;2.53;;;1.37;;
14903;SDS011;7543;53.148;8.234;2023-04-01T09:21:03;2.37;;;1.30;;
14903;SDS011;7543;53.148;8.234;2023-04-01T09:23:43;1.60;;;1.40;;
14903;SDS011;7543;53.148;8.234;2023-04-01T09:26:27;2.80;;;1.40;;
14903;SDS011;7543;53.148;8.234;2023-04-01T09:29:05;1.53;;;1.40;;
14903;SDS011;7543;53.148;8.234;2023-04-01T09:31:52;2.17;;;1.40;;
14903;SDS011;7543;53.148;8.234;2023-04-01T09:34:53;2.27;;;1.50;;
14903;SDS011;7543;53.148;8.234;2023-04-01T09:37:31;1.60;;;1.40;;
14903;SDS011;7543;53.148;8.234;2023-04-01T09:40:13;1.53;;;1.43;;
14903;SDS011;7543;53.148;8.234;2023-04-01T09:42:49;2.03;;;1.20;;
14903;SDS011;7543;53.148;8.234;2023-04-01T09:45:34;1.20;;;1.10;;
14903;SDS011;7543;53.148;8.234;2023-04-01T09:48:08;1.87;;;1.43;;
14903;SDS011;7543;53.148;8.234;2023-04-01T09:50:46;2.70;;;1.20;;
14903;SDS011;7543;53.148;8.234;2023-04-01T09:53:32;2.03;;;1.00;;
14903;SDS011;7543;53.148;8.234;2023-04-01T09:56:21;1.80;;;1.30;;
14903;SDS011;7543;53.148;8.234;2023-04-01T10:05:43;0.80;;;0.70;;
14903;SDS011;7543;53.148;8.234;2023-04-01T10:09:12;0.50;;;0.50;;
14903;SDS011;7543;53.148;8.234;2023-04-01T10:15:00;0.53;;;0.53;;
14903;SDS011;7543;53.148;8.234;2023-04-01T10:18:11;0.60;;;0.60;;
14903;SDS011;7543;53.148;8.234;2023-04-01T10:20:56;1.00;;;0.90;;
14903;SDS011;7543;53.148;8.234;2023-04-01T10:23:38;0.90;;;0.90;;
14903;SDS011;7543;53.148;8.234;2023-04-01T10:33:08;1.00;;;1.00;;
14903;SDS011;7543;53.148;8.234;2023-04-01T10:36:04;1.77;;;0.90;;
14903;SDS011;7543;53.148;8.234;2023-04-01T10:42:00;1.20;;;1.10;;
14903;SDS011;7543;53.148;8.234;2023-04-01T10:48:43;1.30;;;1.20;;
14903;SDS011;7543;53.148;8.234;2023-04-01T11:02:51;1.97;;;1.80;;
14903;SDS011;7543;53.148;8.234;2023-04-01T11:12:09;1.80;;;1.70;;
14903;SDS011;7543;53.148;8.234;2023-04-01T11:15:17;2.20;;;2.00;;
14903;SDS011;7543;53.148;8.234;2023-04-01T11:21:16;1.13;;;1.00;;
14903;SDS011;7543;53.148;8.234;2023-04-01T11:24:11;1.27;;;1.17;;
14903;SDS011;7543;53.148;8.234;2023-04-01T11:27:02;1.20;;;1.10;;
14903;SDS011;7543;53.148;8.234;2023-04-01T11:30:02;2.33;;;2.13;;
14903;SDS011;7543;53.148;8.234;2023-04-01T11:32:46;2.53;;;2.23;;
14903;SDS011;7543;53.148;8.234;2023-04-01T11:35:28;2.27;;;2.07;;
14903;SDS011;7543;53.148;8.234;2023-04-01T11:38:18;1.90;;;1.60;;
14903;SDS011;7543;53.148;8.234;2023-04-01T11:40:52;1.77;;;1.50;;
14903;SDS011;7543;53.148;8.234;2023-04-01T11:43:48;1.40;;;1.30;;
14903;SDS011;7543;53.148;8.234;2023-04-01T11:46:33;1.20;;;1.10;;
14903;SDS011;7543;53.148;8.234;2023-04-01T11:49:13;1.27;;;1.07;;
14903;SDS011;7543;53.148;8.234;2023-04-01T11:52:05;1.30;;;1.20;;
14903;SDS011;7543;53.148;8.234;2023-04-01T11:54:56;1.67;;;1.57;;
14903;SDS011;7543;53.148;8.234;2023-04-01T11:57:43;1.70;;;1.60;;
14903;SDS011;7543;53.148;8.234;2023-04-01T12:00:33;1.97;;;1.77;;
14903;SDS011;7543;53.148;8.234;2023-04-01T12:03:10;1.90;;;1.70;;
14903;SDS011;7543;53.148;8.234;2023-04-01T12:05:58;2.23;;;2.03;;
14903;SDS011;7543;53.148;8.234;2023-04-01T12:08:31;2.40;;;2.20;;
14903;SDS011;7543;53.148;8.234;2023-04-01T12:11:06;2.93;;;2.70;;
14903;SDS011;7543;53.148;8.234;2023-04-01T12:13:40;2.70;;;2.43;;
14903;SDS011;7543;53.148;8.234;2023-04-01T12:16:33;2.43;;;2.23;;
14903;SDS011;7543;53.148;8.234;2023-04-01T12:19:11;2.53;;;2.27;;
14903;SDS011;7543;53.148;8.234;2023-04-01T12:21:49;1.80;;;1.67;;
14903;SDS011;7543;53.148;8.234;2023-04-01T12:27:19;1.80;;;1.30;;
14903;SDS011;7543;53.148;8.234;2023-04-01T12:29:59;1.80;;;1.07;;
14903;SDS011;7543;53.148;8.234;2023-04-01T12:32:49;1.40;;;1.00;;
14903;SDS011;7543;53.148;8.234;2023-04-01T12:35:25;1.13;;;0.90;;
14903;SDS011;7543;53.148;8.234;2023-04-01T12:38:05;0.93;;;0.90;;
14903;SDS011;7543;53.148;8.234;2023-04-01T12:40:51;1.00;;;0.90;;
14903;SDS011;7543;53.148;8.234;2023-04-01T12:43:42;0.80;;;0.77;;
14903;SDS011;7543;53.148;8.234;2023-04-01T12:46:29;1.33;;;1.00;;
14903;SDS011;7543;53.148;8.234;2023-04-01T12:49:09;0.87;;;0.87;;
14903;SDS011;7543;53.148;8.234;2023-04-01T12:51:57;1.50;;;1.40;;
14903;SDS011;7543;53.148;8.234;2023-04-01T12:54:55;2.80;;;1.57;;
14903;SDS011;7543;53.148;8.234;2023-04-01T12:57:50;1.30;;;1.20;;
14903;SDS011;7543;53.148;8.234;2023-04-01T13:00:41;0.80;;;0.70;;
14903;SDS011;7543;53.148;8.234;2023-04-01T13:03:19;2.77;;;1.17;;
14903;SDS011;7543;53.148;8.234;2023-04-01T13:06:10;2.77;;;1.13;;
14903;SDS011;7543;53.148;8.234;2023-04-01T13:08:55;1.30;;;1.20;;
14903;SDS011;7543;53.148;8.234;2023-04-01T13:11:35;1.13;;;1.03;;
14903;SDS011;7543;53.148;8.234;2023-04-01T13:14:24;1.20;;;1.10;;
14903;SDS011;7543;53.148;8.234;2023-04-01T13:17:07;1.43;;;1.03;;
14903;SDS011;7543;53.148;8.234;2023-04-01T13:19:42;1.50;;;1.10;;
14903;SDS011;7543;53.148;8.234;2023-04-01T13:22:15;1.97;;;1.10;;
14903;SDS011;7543;53.148;8.234;2023-04-01T13:24:49;1.20;;;1.10;;
14903;SDS011;7543;53.148;8.234;2023-04-01T13:27:21;1.40;;;1.13;;
14903;SDS011;7543;53.148;8.234;2023-04-01T13:29:59;1.10;;;1.00;;
14903;SDS011;7543;53.148;8.234;2023-04-01T13:32:33;1.27;;;1.17;;
14903;SDS011;7543;53.148;8.234;2023-04-01T13:35:11;1.53;;;1.40;;
14903;SDS011;7543;53.148;8.234;2023-04-01T13:37:52;1.03;;;1.00;;
14903;SDS011;7543;53.148;8.234;2023-04-01T13:40:30;1.40;;;1.30;;
14903;SDS011;7543;53.148;8.234;2023-04-01T13:43:07;1.60;;;1.40;;
14903;SDS011;7543;53.148;8.234;2023-04-01T13:45:42;1.37;;;1.20;;
14903;SDS011;7543;53.148;8.234;2023-04-01T13:51:20;1.40;;;1.10;;
14903;SDS011;7543;53.148;8.234;2023-04-01T13:54:05;1.20;;;1.10;;
14903;SDS011;7543;53.148;8.234;2023-04-01T13:57:01;1.37;;;1.17;;
14903;SDS011;7543;53.148;8.234;2023-04-01T13:59:50;1.70;;;1.30;;
14903;SDS011;7543;53.148;8.234;2023-04-01T14:02:47;1.20;;;1.00;;
14903;SDS011;7543;53.148;8.234;2023-04-01T14:08:17;1.10;;;1.00;;
14903;SDS011;7543;53.148;8.234;2023-04-01T14:10:55;1.43;;;1.20;;
14903;SDS011;7543;53.148;8.234;2023-04-01T14:13:31;1.30;;;1.20;;
14903;SDS011;7543;53.148;8.234;2023-04-01T14:16:06;2.23;;;1.60;;
14903;SDS011;7543;53.148;8.234;2023-04-01T14:18:46;2.30;;;1.70;;
14903;SDS011;7543;53.148;8.234;2023-04-01T14:21:23;1.27;;;1.10;;
14903;SDS011;7543;53.148;8.234;2023-04-01T14:24:01;1.20;;;1.10;;
14903;SDS011;7543;53.148;8.234;2023-04-01T14:26:55;1.20;;;1.10;;
14903;SDS011;7543;53.148;8.234;2023-04-01T14:29:44;1.40;;;1.30;;
14903;SDS011;7543;53.148;8.234;2023-04-01T14:32:24;1.17;;;1.00;;
14903;SDS011;7543;53.148;8.234;2023-04-01T14:35:06;1.20;;;1.10;;
14903;SDS011;7543;53.148;8.234;2023-04-01T14:40:52;1.90;;;1.70;;
14903;SDS011;7543;53.148;8.234;2023-04-01T14:49:20;1.77;;;1.60;;
14903;SDS011;7543;53.148;8.234;2023-04-01T14:51:51;1.40;;;1.30;;
14903;SDS011;7543;53.148;8.234;2023-04-01T14:54:21;2.00;;;1.80;;
14903;SDS011;7543;53.148;8.234;2023-04-01T14:57:03;2.03;;;1.77;;
14903;SDS011;7543;53.148;8.234;2023-04-01T14:59:40;1.70;;;1.60;;
14903;SDS011;7543;53.148;8.234;2023-04-01T15:02:14;1.97;;;1.70;;
14903;SDS011;7543;53.148;8.234;2023-04-01T15:05:00;2.07;;;1.70;;
14903;SDS011;7543;53.148;8.234;2023-04-01T15:10:43;3.73;;;2.50;;
14903;SDS011;7543;53.148;8.234;2023-04-01T15:13:40;5.43;;;1.93;;
14903;SDS011;7543;53.148;8.234;2023-04-01T15:16:36;2.07;;;1.77;;
14903;SDS011;7543;53.148;8.234;2023-04-01T15:19:12;4.10;;;1.73;;
14903;SDS011;7543;53.148;8.234;2023-04-01T15:24:37;2.83;;;2.07;;
14903;SDS011;7543;53.148;8.234;2023-04-01T15:27:14;2.67;;;2.00;;
14903;SDS011;7543;53.148;8.234;2023-04-01T15:29:57;3.63;;;3.00;;
14903;SDS011;7543;53.148;8.234;2023-04-01T15:32:47;3.30;;;2.73;;
14903;SDS011;7543;53.148;8.234;2023-04-01T15:35:25;3.37;;;2.87;;
14903;SDS011;7543;53.148;8.234;2023-04-01T15:37:59;3.53;;;2.60;;
14903;SDS011;7543;53.148;8.234;2023-04-01T15:40:36;2.80;;;2.50;;
14903;SDS011;7543;53.148;8.234;2023-04-01T15:43:19;2.67;;;2.33;;
14903;SDS011;7543;53.148;8.234;2023-04-01T15:45:55;2.57;;;2.00;;
14903;SDS011;7543;53.148;8.234;2023-04-01T15:48:31;4.03;;;3.00;;
14903;SDS011;7543;53.148;8.234;2023-04-01T15:54:24;4.63;;;2.50;;
14903;SDS011;7543;53.148;8.234;2023-04-01T15:57:01;2.70;;;2.30;;
14903;SDS011;7543;53.148;8.234;2023-04-01T15:59:51;3.93;;;2.60;;
14903;SDS011;7543;53.148;8.234;2023-04-01T16:02:27;2.70;;;2.10;;
14903;SDS011;7543;53.148;8.234;2023-04-01T16:05:01;4.40;;;2.97;;
14903;SDS011;7543;53.148;8.234;2023-04-01T16:07:43;3.27;;;2.67;;
14903;SDS011;7543;53.148;8.234;2023-04-01T16:10:30;5.00;;;2.80;;
14903;SDS011;7543;53.148;8.234;2023-04-01T16:13:14;3.87;;;2.90;;
14903;SDS011;7543;53.148;8.234;2023-04-01T16:15:59;4.60;;;3.13;;
14903;SDS011;7543;53.148;8.234;2023-04-01T16:18:34;5.50;;;2.63;;
14903;SDS011;7543;53.148;8.234;2023-04-01T16:21:14;5.53;;;3.10;;
14903;SDS011;7543;53.148;8.234;2023-04-01T16:23:53;4.83;;;3.03;;
14903;SDS011;7543;53.148;8.234;2023-04-01T16:26:24;4.07;;;3.00;;
14903;SDS011;7543;53.148;8.234;2023-04-01T16:28:57;4.10;;;3.07;;
14903;SDS011;7543;53.148;8.234;2023-04-01T16:31:32;5.50;;;2.83;;
14903;SDS011;7543;53.148;8.234;2023-04-01T16:34:04;3.17;;;2.80;;
14903;SDS011;7543;53.148;8.234;2023-04-01T16:36:40;5.57;;;3.27;;
14903;SDS011;7543;53.148;8.234;2023-04-01T16:42:13;5.00;;;3.43;;
14903;SDS011;7543;53.148;8.234;2023-04-01T16:44:49;6.73;;;3.20;;
14903;SDS011;7543;53.148;8.234;2023-04-01T16:47:20;3.97;;;2.80;;
14903;SDS011;7543;53.148;8.234;2023-04-01T16:49:51;4.87;;;3.40;;
14903;SDS011;7543;53.148;8.234;2023-04-01T16:52:40;2.90;;;2.57;;
14903;SDS011;7543;53.148;8.234;2023-04-01T16:55:16;5.53;;;2.97;;
14903;SDS011;7543;53.148;8.234;2023-04-01T16:57:46;3.47;;;2.87;;
14903;SDS011;7543;53.148;8.234;2023-04-01T17:00:22;4.90;;;2.60;;
14903;SDS011;7543;53.148;8.234;2023-04-01T17:02:57;5.60;;;3.20;;
14903;SDS011;7543;53.148;8.234;2023-04-01T17:05:39;3.37;;;2.70;;
14903;SDS011;7543;53.148;8.234;2023-04-01T17:08:15;4.40;;;2.73;;
14903;SDS011;7543;53.148;8.234;2023-04-01T17:10:51;4.43;;;3.07;;
14903;SDS011;7543;53.148;8.234;2023-04-01T17:13:25;3.00;;;2.50;;
14903;SDS011;7543;53.148;8.234;2023-04-01T17:16:20;5.73;;;3.13;;
14903;SDS011;7543;53.148;8.234;2023-04-01T17:19:11;2.80;;;2.50;;
14903;SDS011;7543;53.148;8.234;2023-04-01T17:21:47;4.17;;;2.67;;
14903;SDS011;7543;53.148;8.234;2023-04-01T17:24:27;3.70;;;2.60;;
14903;SDS011;7543;53.148;8.234;2023-04-01T17:27:01;4.63;;;2.50;;
14903;SDS011;7543;53.148;8.234;2023-04-01T17:29:39;3.30;;;2.33;;